createdAt,value
2019-01-10T00:00:07.364Z,98.04
2019-01-10T00:02:37.729Z,97.85
2019-01-10T00:05:09.565Z,97.78
2019-01-10T00:07:39.868Z,97.70
2019-01-10T00:10:13.783Z,96.84
2019-01-10T00:12:43.714Z,96.81
2019-01-10T00:15:16.606Z,96.74
2019-01-10T00:17:47.130Z,96.09
2019-01-10T00:20:17.980Z,96.45
2019-01-10T00:22:49.787Z,96.63
2019-01-10T00:25:20.469Z,96.60
2019-01-10T00:27:50.746Z,96.49
2019-01-10T00:30:21.034Z,95.90
2019-01-10T00:32:51.753Z,95.63
2019-01-10T00:35:23.711Z,95.72
2019-01-10T00:37:54.297Z,95.14
2019-01-10T00:40:24.767Z,95.03
2019-01-10T00:42:55.783Z,95.71
2019-01-10T00:45:26.418Z,96.16
2019-01-10T00:47:56.820Z,96.71
2019-01-10T00:50:27.409Z,96.28
2019-01-10T00:52:57.785Z,96.42
2019-01-10T00:55:28.447Z,95.83
2019-01-10T00:57:58.749Z,95.40
2019-01-10T01:00:29.577Z,95.23
2019-01-10T01:02:59.939Z,95.23
2019-01-10T01:05:30.509Z,95.52
2019-01-10T01:08:00.810Z,96.10
2019-01-10T01:10:31.471Z,96.21
2019-01-10T01:13:01.829Z,96.13
2019-01-10T01:15:32.667Z,96.09
2019-01-10T01:18:03.415Z,96.35
2019-01-10T01:20:33.678Z,96.23
2019-01-10T01:23:04.295Z,95.89
2019-01-10T01:25:34.643Z,95.95
2019-01-10T01:28:04.838Z,96.20
2019-01-10T01:30:35.747Z,95.66
2019-01-10T01:33:06.432Z,95.76
2019-01-10T01:35:36.727Z,95.69
2019-01-10T01:38:07.929Z,95.34
2019-01-10T01:40:38.516Z,95.05
2019-01-10T01:43:08.804Z,95.00
2019-01-10T01:45:39.429Z,94.94
2019-01-10T01:48:09.882Z,94.96
2019-01-10T01:50:40.448Z,94.17
2019-01-10T01:53:10.763Z,94.34
2019-01-10T01:55:41.434Z,94.58
2019-01-10T01:58:12.762Z,94.48
2019-01-10T02:00:43.650Z,94.54
2019-01-10T02:03:14.254Z,94.35
2019-01-10T02:05:44.550Z,93.64
2019-01-10T02:08:14.905Z,93.94
2019-01-10T02:10:45.554Z,93.88
2019-01-10T02:13:16.847Z,92.99
2019-01-10T02:15:47.750Z,92.78
2019-01-10T02:18:18.812Z,93.73
2019-01-10T02:20:49.457Z,94.10
2019-01-10T02:23:19.800Z,93.94
2019-01-10T02:25:50.412Z,93.93
2019-01-10T02:28:20.803Z,93.58
2019-01-10T02:30:51.366Z,92.55
2019-01-10T02:33:21.678Z,92.55
2019-01-10T02:35:52.258Z,93.19
2019-01-10T02:38:22.732Z,93.81
2019-01-10T02:40:53.317Z,94.15
2019-01-10T02:43:26.623Z,94.26
2019-01-10T02:45:55.750Z,94.02
2019-01-10T02:48:32.418Z,93.83
2019-01-10T02:51:02.725Z,94.08
2019-01-10T02:53:33.398Z,94.61
2019-01-10T02:56:03.774Z,94.86
2019-01-10T02:58:34.368Z,94.24
2019-01-10T03:01:04.809Z,94.43
2019-01-10T03:03:35.444Z,94.75
2019-01-10T03:06:05.851Z,94.49
2019-01-10T03:08:36.729Z,94.94
2019-01-10T03:11:07.552Z,95.28
2019-01-10T03:13:37.878Z,94.54
2019-01-10T03:16:08.561Z,94.33
2019-01-10T03:18:38.878Z,94.72
2019-01-10T03:21:09.468Z,94.98
2019-01-10T03:23:39.848Z,94.93
2019-01-10T03:26:10.469Z,95.21
2019-01-10T03:28:40.799Z,95.21
2019-01-10T03:31:11.505Z,95.39
2019-01-10T03:33:41.799Z,95.15
2019-01-10T03:36:12.857Z,94.83
2019-01-10T03:38:43.550Z,94.68
2019-01-10T03:41:13.821Z,93.72
2019-01-10T03:43:47.306Z,93.95
2019-01-10T03:46:16.798Z,94.91
2019-01-10T03:48:47.389Z,95.45
2019-01-10T03:51:17.744Z,95.49
2019-01-10T03:53:48.430Z,95.48
2019-01-10T03:56:18.937Z,94.98
2019-01-10T03:58:49.519Z,94.79
2019-01-10T04:01:19.901Z,94.85
2019-01-10T04:03:50.420Z,94.46
2019-01-10T04:06:20.790Z,94.54
2019-01-10T04:08:51.629Z,94.27
2019-01-10T04:11:21.934Z,94.91
2019-01-10T04:13:57.512Z,94.31
2019-01-10T04:16:24.905Z,93.78
2019-01-10T04:18:55.569Z,94.10
2019-01-10T04:21:25.942Z,93.81
2019-01-10T04:23:56.530Z,93.80
2019-01-10T04:26:26.846Z,93.16
2019-01-10T04:28:57.487Z,93.35
2019-01-10T04:31:27.975Z,92.37
2019-01-10T04:33:58.417Z,92.63
2019-01-10T04:36:30.184Z,92.87
2019-01-10T04:39:00.774Z,92.80
2019-01-10T04:41:31.311Z,92.70
2019-01-10T04:44:06.933Z,92.42
2019-01-10T04:46:34.064Z,92.38
2019-01-10T04:49:04.740Z,92.38
2019-01-10T04:51:35.366Z,92.52
2019-01-10T04:54:06.034Z,93.04
2019-01-10T04:56:36.489Z,92.89
2019-01-10T04:59:06.676Z,92.74
2019-01-10T05:01:37.272Z,92.73
2019-01-10T05:04:07.640Z,92.61
2019-01-10T05:06:37.957Z,92.85
2019-01-10T05:09:09.638Z,93.08
2019-01-10T05:11:40.193Z,93.39
2019-01-10T05:14:16.465Z,93.99
2019-01-10T05:16:42.613Z,94.10
2019-01-10T05:19:12.897Z,93.86
2019-01-10T05:21:43.452Z,93.53
2019-01-10T05:24:16.078Z,94.10
2019-01-10T05:26:46.731Z,94.72
2019-01-10T05:29:17.340Z,94.90
2019-01-10T05:31:47.889Z,94.72
2019-01-10T05:34:18.513Z,94.88
2019-01-10T05:36:48.804Z,95.39
2019-01-10T05:39:19.431Z,95.64
2019-01-10T05:41:49.683Z,95.58
2019-01-10T05:44:26.537Z,95.66
2019-01-10T05:46:52.670Z,95.78
2019-01-10T05:49:23.269Z,95.76
2019-01-10T05:51:53.814Z,95.82
2019-01-10T05:54:24.540Z,95.83
2019-01-10T05:56:54.743Z,95.50
2019-01-10T05:59:25.382Z,95.51
2019-01-10T06:01:55.861Z,95.13
2019-01-10T06:04:26.472Z,94.83
2019-01-10T06:06:56.751Z,94.50
2019-01-10T06:09:27.307Z,94.62
2019-01-10T06:11:57.729Z,94.61
2019-01-10T06:14:35.566Z,94.60
2019-01-10T06:17:00.569Z,94.52
2019-01-10T06:19:30.912Z,94.45
2019-01-10T06:22:01.520Z,94.09
2019-01-10T06:24:31.697Z,94.41
2019-01-10T06:27:01.960Z,94.24
2019-01-10T06:29:32.513Z,94.34
2019-01-10T06:32:02.926Z,94.28
2019-01-10T06:34:33.490Z,93.97
2019-01-10T06:37:03.895Z,94.10
2019-01-10T06:39:34.504Z,93.99
2019-01-10T06:42:04.818Z,94.13
2019-01-10T06:44:44.358Z,94.49
2019-01-10T06:47:07.900Z,94.64
2019-01-10T06:49:38.361Z,94.73
2019-01-10T06:52:08.558Z,94.99
2019-01-10T06:54:39.001Z,94.91
2019-01-10T06:57:09.513Z,94.92
2019-01-10T06:59:39.814Z,94.89
2019-01-10T07:02:10.495Z,95.17
2019-01-10T07:04:40.713Z,95.13
2019-01-10T07:07:11.327Z,94.94
2019-01-10T07:09:41.998Z,94.70
2019-01-10T07:12:12.447Z,94.49
2019-01-10T07:14:43.100Z,95.49
2019-01-10T07:17:15.865Z,94.87
2019-01-10T07:19:49.007Z,95.08
2019-01-10T07:22:20.431Z,94.55
2019-01-10T07:24:55.495Z,94.22
2019-01-10T07:27:25.803Z,94.12
2019-01-10T07:29:59.584Z,94.09
2019-01-10T07:32:29.960Z,94.01
2019-01-10T07:35:05.477Z,93.95
2019-01-10T07:37:35.773Z,93.87
2019-01-10T07:40:12.638Z,93.85
2019-01-10T07:42:42.935Z,93.70
2019-01-10T07:45:24.930Z,93.52
2019-01-10T07:47:55.724Z,93.79
2019-01-10T07:50:37.284Z,93.72
2019-01-10T07:53:10.269Z,93.95
2019-01-10T07:55:40.987Z,93.95
2019-01-10T07:58:11.487Z,93.96
2019-01-10T08:00:41.851Z,93.94
2019-01-10T08:03:12.407Z,93.87
2019-01-10T08:05:42.736Z,93.86
2019-01-10T08:08:14.397Z,93.73
2019-01-10T08:10:44.821Z,93.62
2019-01-10T08:13:15.433Z,93.54
2019-01-10T08:15:46.164Z,93.47
2019-01-10T08:18:16.520Z,93.38
2019-01-10T08:20:46.818Z,93.33
2019-01-10T08:23:17.600Z,93.26
2019-01-10T08:25:47.938Z,93.22
2019-01-10T08:28:18.509Z,93.25
2019-01-10T08:30:48.891Z,93.29
2019-01-10T08:33:19.388Z,93.21
2019-01-10T08:35:49.690Z,93.20
2019-01-10T08:38:21.905Z,92.94
2019-01-10T08:40:52.481Z,93.10
2019-01-10T08:43:22.742Z,93.03
2019-01-10T08:45:53.380Z,93.07
2019-01-10T08:48:23.911Z,93.14
2019-01-10T08:50:54.420Z,93.14
2019-01-10T08:53:24.678Z,93.09
2019-01-10T08:55:55.288Z,93.01
2019-01-10T08:58:25.767Z,92.87
2019-01-10T09:00:56.754Z,93.03
2019-01-10T09:03:27.312Z,93.11
2019-01-10T09:05:57.632Z,93.11
2019-01-10T09:08:27.969Z,93.08
2019-01-10T09:10:58.548Z,92.98
2019-01-10T09:13:28.837Z,92.88
2019-01-10T09:15:59.445Z,92.85
2019-01-10T09:18:29.800Z,92.75
2019-01-10T09:21:04.458Z,92.64
2019-01-10T09:23:32.629Z,92.57
2019-01-10T09:26:02.637Z,92.59
2019-01-10T09:28:32.696Z,92.50
2019-01-10T09:31:03.406Z,92.45
2019-01-10T09:33:33.504Z,92.84
2019-01-10T09:36:03.608Z,93.62
2019-01-10T09:38:33.774Z,94.22
2019-01-10T09:41:04.227Z,94.41
2019-01-10T09:43:34.509Z,94.70
2019-01-10T09:46:04.864Z,94.78
2019-01-10T09:48:35.403Z,94.65
2019-01-10T09:51:05.672Z,95.00
2019-01-10T09:53:35.977Z,94.93
2019-01-10T09:56:06.617Z,94.37
2019-01-10T09:58:36.797Z,94.08
2019-01-10T10:01:07.444Z,93.81
2019-01-10T10:03:37.688Z,93.19
2019-01-10T10:06:08.316Z,92.99
2019-01-10T10:08:38.624Z,92.81
2019-01-10T10:11:09.160Z,93.08
2019-01-10T10:13:39.305Z,93.21
2019-01-10T10:16:09.648Z,92.37
2019-01-10T10:18:40.222Z,92.11
2019-01-10T10:21:10.586Z,92.63
2019-01-10T10:23:40.836Z,92.08
2019-01-10T10:26:11.391Z,91.66
2019-01-10T10:28:41.484Z,91.39
2019-01-10T10:31:11.801Z,90.79
2019-01-10T10:33:42.228Z,91.13
2019-01-10T10:36:12.675Z,91.37
2019-01-10T10:38:43.295Z,91.72
2019-01-10T10:41:13.416Z,92.13
2019-01-10T10:43:44.893Z,91.76
2019-01-10T10:46:15.380Z,92.06
2019-01-10T10:48:45.602Z,92.36
2019-01-10T10:51:15.870Z,92.80
2019-01-10T10:53:46.428Z,93.10
2019-01-10T10:56:16.660Z,92.98
2019-01-10T10:58:47.110Z,92.35
2019-01-10T11:01:17.404Z,92.35
2019-01-10T11:03:47.668Z,92.66
2019-01-10T11:06:17.678Z,92.36
2019-01-10T11:08:47.820Z,92.26
2019-01-10T11:11:18.385Z,93.02
2019-01-10T11:13:50.949Z,93.02
2019-01-10T11:16:21.332Z,92.99
2019-01-10T11:18:51.582Z,93.17
2019-01-10T11:21:21.904Z,92.89
2019-01-10T11:23:52.469Z,92.27
2019-01-10T11:26:22.612Z,92.49
2019-01-10T11:28:52.929Z,92.64
2019-01-10T11:31:23.434Z,92.79
2019-01-10T11:33:54.078Z,92.99
2019-01-10T11:36:24.383Z,93.38
2019-01-10T11:38:54.610Z,92.95
2019-01-10T11:41:26.973Z,93.45
2019-01-10T11:43:57.388Z,93.10
2019-01-10T11:46:27.603Z,93.01
2019-01-10T11:48:57.771Z,92.96
2019-01-10T11:51:28.291Z,92.59
2019-01-10T11:53:58.472Z,92.64
2019-01-10T11:56:28.717Z,92.89
2019-01-10T11:58:59.219Z,92.89
2019-01-10T12:01:29.781Z,92.33
2019-01-10T12:04:00.307Z,92.33
2019-01-10T12:06:30.779Z,92.47
2019-01-10T12:09:01.128Z,92.34
2019-01-10T12:11:32.516Z,92.34
2019-01-10T12:14:02.873Z,92.22
2019-01-10T12:16:33.456Z,92.04
2019-01-10T12:19:03.599Z,91.69
2019-01-10T12:21:33.844Z,92.16
2019-01-10T12:24:04.393Z,91.96
2019-01-10T12:26:34.715Z,91.96
2019-01-10T12:29:05.985Z,92.11
2019-01-10T12:31:36.551Z,91.70
2019-01-10T12:34:06.780Z,92.34
2019-01-10T12:36:37.246Z,92.25
2019-01-10T12:39:08.984Z,91.85
2019-01-10T12:41:39.476Z,92.02
2019-01-10T12:44:18.802Z,92.19
2019-01-10T12:46:49.332Z,93.12
2019-01-10T12:49:19.638Z,93.12
2019-01-10T12:51:50.229Z,93.06
2019-01-10T12:54:22.014Z,93.15
2019-01-10T12:56:52.293Z,93.13
2019-01-10T12:59:22.507Z,93.00
2019-01-10T13:01:52.674Z,92.65
2019-01-10T13:04:23.152Z,92.64
2019-01-10T13:06:53.380Z,92.55
2019-01-10T13:09:23.581Z,92.69
2019-01-10T13:11:54.049Z,92.83
2019-01-10T13:14:24.394Z,92.50
2019-01-10T13:16:54.555Z,92.37
2019-01-10T13:19:24.880Z,92.67
2019-01-10T13:21:55.338Z,93.42
2019-01-10T13:24:28.534Z,93.14
2019-01-10T13:26:58.764Z,93.18
2019-01-10T13:29:29.407Z,93.63
2019-01-10T13:32:00.847Z,93.63
2019-01-10T13:34:31.295Z,93.98
2019-01-10T13:37:01.616Z,94.08
2019-01-10T13:39:31.878Z,93.76
2019-01-10T13:42:02.311Z,93.80
2019-01-10T13:44:33.008Z,93.95
2019-01-10T13:47:03.577Z,93.96
2019-01-10T13:49:33.699Z,94.28
2019-01-10T13:52:04.024Z,94.23
2019-01-10T13:54:34.268Z,94.35
2019-01-10T13:57:04.751Z,94.21
2019-01-10T13:59:34.974Z,94.10
2019-01-10T14:02:05.366Z,93.93
2019-01-10T14:04:35.527Z,94.10
2019-01-10T14:07:06.223Z,93.40
2019-01-10T14:09:36.404Z,93.30
2019-01-10T14:12:06.666Z,93.57
2019-01-10T14:14:36.892Z,93.76
2019-01-10T14:17:10.290Z,93.75
2019-01-10T14:19:40.529Z,93.30
2019-01-10T14:22:11.233Z,93.15
2019-01-10T14:24:41.701Z,93.05
2019-01-10T14:27:12.666Z,93.29
2019-01-10T14:29:43.410Z,93.31
2019-01-10T14:32:13.699Z,92.86
2019-01-10T14:34:44.172Z,92.72
2019-01-10T14:37:14.777Z,92.72
2019-01-10T14:39:45.164Z,93.06
2019-01-10T14:42:15.682Z,92.96
2019-01-10T14:44:46.753Z,93.05
2019-01-10T14:47:17.477Z,92.56
2019-01-10T14:49:47.658Z,92.35
2019-01-10T14:52:18.325Z,92.48
2019-01-10T14:54:48.612Z,92.54
2019-01-10T14:57:18.738Z,92.66
2019-01-10T14:59:49.244Z,92.19
2019-01-10T15:02:19.640Z,92.19
2019-01-10T15:04:49.689Z,92.14
2019-01-10T15:07:20.214Z,92.49
2019-01-10T15:09:50.629Z,91.79
2019-01-10T15:12:20.790Z,92.00
2019-01-10T15:14:51.529Z,91.87
2019-01-10T15:17:21.944Z,91.95
2019-01-10T15:19:53.674Z,92.10
2019-01-10T15:22:24.220Z,91.57
2019-01-10T15:24:54.304Z,91.44
2019-01-10T15:27:24.515Z,91.38
2019-01-10T15:29:54.754Z,91.51
2019-01-10T15:32:25.419Z,91.41
2019-01-10T15:34:55.676Z,91.37
2019-01-10T15:37:26.182Z,91.64
2019-01-10T15:39:57.578Z,91.56
2019-01-10T15:42:27.858Z,91.56
2019-01-10T15:44:58.548Z,91.42
2019-01-10T15:47:28.840Z,91.54
2019-01-10T15:50:01.420Z,92.02
2019-01-10T15:52:31.922Z,92.48
2019-01-10T15:55:02.458Z,92.64
2019-01-10T15:57:32.572Z,93.20
2019-01-10T16:00:02.940Z,93.35
2019-01-10T16:02:33.324Z,93.48
2019-01-10T16:05:03.553Z,93.39
2019-01-10T16:07:34.007Z,93.44
2019-01-10T16:10:05.454Z,93.50
2019-01-10T16:12:35.681Z,93.68
2019-01-10T16:15:07.747Z,93.64
2019-01-10T16:17:38.263Z,94.27
2019-01-10T16:20:10.085Z,94.17
2019-01-10T16:22:40.591Z,94.17
2019-01-10T16:25:11.906Z,94.05
2019-01-10T16:27:42.491Z,94.03
2019-01-10T16:30:21.254Z,94.09
2019-01-10T16:32:51.394Z,93.81
2019-01-10T16:35:21.634Z,94.03
2019-01-10T16:37:52.063Z,93.68
2019-01-10T16:40:22.530Z,94.03
2019-01-10T16:42:53.551Z,94.03
2019-01-10T16:45:25.958Z,93.71
2019-01-10T16:47:56.574Z,93.70
2019-01-10T16:50:26.883Z,93.14
2019-01-10T16:52:57.475Z,93.05
2019-01-10T16:55:27.642Z,93.01
2019-01-10T16:57:58.216Z,92.42
2019-01-10T17:00:33.495Z,92.04
2019-01-10T17:03:03.911Z,91.84
2019-01-10T17:05:34.395Z,91.80
2019-01-10T17:08:05.299Z,91.74
2019-01-10T17:10:35.422Z,91.09
2019-01-10T17:13:05.649Z,90.91
2019-01-10T17:15:35.842Z,90.99
2019-01-10T17:18:06.350Z,90.51
2019-01-10T17:20:36.532Z,90.81
2019-01-10T17:23:08.989Z,90.55
2019-01-10T17:25:40.695Z,90.43
2019-01-10T17:28:11.142Z,90.71
2019-01-10T17:30:41.405Z,91.13
2019-01-10T17:33:11.656Z,90.82
2019-01-10T17:35:42.236Z,90.77
2019-01-10T17:38:12.693Z,90.58
2019-01-10T17:40:43.212Z,90.68
2019-01-10T17:43:14.794Z,90.71
2019-01-10T17:45:45.431Z,90.87
2019-01-10T17:48:15.594Z,91.13
2019-01-10T17:50:45.648Z,90.97
2019-01-10T17:53:16.309Z,91.06
2019-01-10T17:55:46.404Z,91.14
2019-01-10T17:58:16.506Z,91.58
2019-01-10T18:00:46.914Z,91.50
2019-01-10T18:03:17.367Z,91.73
2019-01-10T18:05:47.596Z,91.75
2019-01-10T18:08:17.954Z,91.47
2019-01-10T18:10:48.152Z,91.42
2019-01-10T18:13:18.228Z,91.34
2019-01-10T18:15:48.535Z,91.77
2019-01-10T18:18:19.727Z,91.75
2019-01-10T18:20:50.256Z,91.73
2019-01-10T18:23:20.403Z,91.69
2019-01-10T18:25:50.442Z,91.27
2019-01-10T18:28:20.576Z,91.28
2019-01-10T18:30:50.778Z,90.98
2019-01-10T18:33:21.341Z,90.93
2019-01-10T18:35:52.683Z,90.93
2019-01-10T18:38:23.292Z,91.25
2019-01-10T18:40:53.486Z,90.87
2019-01-10T18:43:23.518Z,90.28
2019-01-10T18:45:53.662Z,90.02
2019-01-10T18:48:23.829Z,90.25
2019-01-10T18:50:54.194Z,89.99
2019-01-10T18:53:25.264Z,90.21
2019-01-10T18:55:55.454Z,89.79
2019-01-10T18:58:25.827Z,90.24
2019-01-10T19:00:57.233Z,89.74
2019-01-10T19:03:27.629Z,89.79
2019-01-10T19:05:57.798Z,89.82
2019-01-10T19:08:28.485Z,89.80
2019-01-10T19:10:58.748Z,89.68
2019-01-10T19:13:29.112Z,90.09
2019-01-10T19:15:59.416Z,89.96
2019-01-10T19:18:29.612Z,89.30
2019-01-10T19:21:00.117Z,89.31
2019-01-10T19:23:30.823Z,89.56
2019-01-10T19:26:02.276Z,89.92
2019-01-10T19:28:32.759Z,89.76
2019-01-10T19:31:04.663Z,89.53
2019-01-10T19:33:35.138Z,89.32
2019-01-10T19:36:05.730Z,89.74
2019-01-10T19:38:36.287Z,89.99
2019-01-10T19:41:06.682Z,89.48
2019-01-10T19:43:37.098Z,89.37
2019-01-10T19:46:07.747Z,89.72
2019-01-10T19:48:38.095Z,90.08
2019-01-10T19:51:08.740Z,90.10
2019-01-10T19:53:39.214Z,89.47
2019-01-10T19:56:09.517Z,89.47
2019-01-10T19:58:45.339Z,89.67
2019-01-10T20:01:15.818Z,89.56
2019-01-10T20:03:46.353Z,89.52
2019-01-10T20:06:16.606Z,89.00
2019-01-10T20:08:46.952Z,88.63
2019-01-10T20:11:17.569Z,88.66
2019-01-10T20:13:47.824Z,88.66
2019-01-10T20:16:18.581Z,88.92
2019-01-10T20:18:48.764Z,89.01
2019-01-10T20:21:19.317Z,88.70
2019-01-10T20:23:49.706Z,88.66
2019-01-10T20:26:20.759Z,88.57
2019-01-10T20:28:51.437Z,88.52
2019-01-10T20:31:21.826Z,88.09
2019-01-10T20:33:52.298Z,88.16
2019-01-10T20:36:22.434Z,88.26
2019-01-10T20:38:52.952Z,88.21
2019-01-10T20:41:23.417Z,88.14
2019-01-10T20:43:53.691Z,88.06
2019-01-10T20:46:23.998Z,87.96
2019-01-10T20:48:54.767Z,87.69
2019-01-10T20:51:25.251Z,87.81
2019-01-10T20:53:55.458Z,88.25
2019-01-10T20:56:25.663Z,88.02
2019-01-10T20:58:56.092Z,88.27
2019-01-10T21:01:26.982Z,88.56
2019-01-10T21:03:57.449Z,88.47
2019-01-10T21:06:27.823Z,88.54
2019-01-10T21:08:58.523Z,88.70
2019-01-10T21:11:28.657Z,95.79
2019-01-10T21:13:58.839Z,100.00
2019-01-10T21:16:29.514Z,100.00
2019-01-10T21:18:59.653Z,88.64
2019-01-10T21:21:30.139Z,78.05
2019-01-10T21:24:01.980Z,80.65
2019-01-10T21:26:32.515Z,81.89
2019-01-10T21:29:02.934Z,82.54
2019-01-10T21:31:35.062Z,82.87
2019-01-10T21:34:05.995Z,83.68
2019-01-10T21:36:36.592Z,84.65
2019-01-10T21:39:08.258Z,84.93
2019-01-10T21:41:38.854Z,86.12
2019-01-10T21:44:09.747Z,86.88
2019-01-10T21:46:40.497Z,87.59
2019-01-10T21:49:11.126Z,87.59
2019-01-10T21:51:42.062Z,87.97
2019-01-10T21:54:12.819Z,88.33
2019-01-10T21:56:44.832Z,88.12
2019-01-10T21:59:15.914Z,88.53
2019-01-10T22:01:46.747Z,88.53
2019-01-10T22:04:17.912Z,88.63
2019-01-10T22:06:48.380Z,88.31
2019-01-10T22:09:18.757Z,88.07
2019-01-10T22:11:49.319Z,88.14
2019-01-10T22:14:19.787Z,88.79
2019-01-10T22:16:50.522Z,89.56
2019-01-10T22:19:21.160Z,89.04
2019-01-10T22:21:51.898Z,88.81
2019-01-10T22:24:22.715Z,88.64
2019-01-10T22:26:53.209Z,89.06
2019-01-10T22:29:23.522Z,89.19
2019-01-10T22:31:53.720Z,88.99
2019-01-10T22:34:23.883Z,89.27
2019-01-10T22:36:54.403Z,89.38
2019-01-10T22:39:24.920Z,89.69
2019-01-10T22:41:56.141Z,90.24
2019-01-10T22:44:26.520Z,90.93
2019-01-10T22:46:56.794Z,90.67
2019-01-10T22:49:27.530Z,90.52
2019-01-10T22:51:57.735Z,90.64
2019-01-10T22:54:28.321Z,90.45
2019-01-10T22:56:58.914Z,90.85
2019-01-10T22:59:29.890Z,91.17
2019-01-10T23:02:00.919Z,91.33
2019-01-10T23:04:37.728Z,91.29
2019-01-10T23:07:21.161Z,91.36
2019-01-10T23:09:51.657Z,91.34
2019-01-10T23:12:22.885Z,91.39
2019-01-10T23:14:53.565Z,91.56
2019-01-10T23:17:25.575Z,91.48
2019-01-10T23:19:56.365Z,91.45
2019-01-10T23:22:26.731Z,91.46
2019-01-10T23:24:58.806Z,91.52
2019-01-10T23:27:29.502Z,91.25
2019-01-10T23:29:59.988Z,91.23
2019-01-10T23:32:30.466Z,91.58
2019-01-10T23:35:00.910Z,91.89
2019-01-10T23:37:31.525Z,92.10
2019-01-10T23:40:02.111Z,92.25
2019-01-10T23:42:32.772Z,92.46
2019-01-10T23:45:03.641Z,92.75
2019-01-10T23:47:34.107Z,93.06
2019-01-10T23:50:05.118Z,93.02
2019-01-10T23:52:36.035Z,93.31
2019-01-10T23:55:06.763Z,93.59
2019-01-10T23:57:37.489Z,93.97
